createdAt,value
2023-07-09T00:01:06.807Z,27.60
2023-07-09T00:03:37.339Z,27.50
2023-07-09T00:06:08.237Z,27.50
2023-07-09T00:08:45.212Z,27.50
2023-07-09T00:11:15.753Z,27.40
2023-07-09T00:13:46.384Z,27.40
2023-07-09T00:16:20.038Z,27.30
2023-07-09T00:18:51.154Z,27.20
2023-07-09T00:21:19.877Z,27.30
2023-07-09T00:23:53.330Z,27.30
2023-07-09T00:26:24.725Z,27.30
2023-07-09T00:28:55.446Z,27.30
2023-07-09T00:31:26.020Z,27.30
2023-07-09T00:33:57.453Z,27.30
2023-07-09T00:36:33.153Z,27.20
2023-07-09T00:39:09.391Z,27.20
2023-07-09T00:41:42.030Z,27.10
2023-07-09T00:44:33.484Z,27.20
2023-07-09T00:47:43.573Z,27.10
2023-07-09T00:50:20.540Z,27.10
2023-07-09T00:52:55.625Z,27.10
2023-07-09T00:55:31.566Z,27.10
2023-07-09T00:58:05.438Z,27.00
2023-07-09T01:00:47.924Z,27.00
2023-07-09T01:03:30.751Z,27.00
2023-07-09T01:06:02.270Z,27.00
2023-07-09T01:08:35.622Z,27.00
2023-07-09T01:11:09.993Z,26.90
2023-07-09T01:13:40.955Z,26.90
2023-07-09T01:16:11.653Z,26.80
2023-07-09T01:18:42.154Z,26.90
2023-07-09T01:21:17.069Z,26.80
2023-07-09T01:23:48.379Z,26.80
2023-07-09T01:26:21.730Z,26.70
2023-07-09T01:28:52.289Z,26.70
2023-07-09T01:31:23.575Z,26.70
2023-07-09T01:33:54.136Z,26.70
2023-07-09T01:36:27.306Z,26.70
2023-07-09T01:38:58.061Z,26.60
2023-07-09T01:41:28.678Z,26.60
2023-07-09T01:43:59.123Z,26.60
2023-07-09T01:46:29.741Z,26.60
2023-07-09T01:49:00.205Z,26.60
2023-07-09T01:51:33.765Z,26.50
2023-07-09T01:54:04.229Z,26.50
2023-07-09T01:56:35.939Z,26.50
2023-07-09T01:59:07.054Z,26.50
2023-07-09T02:01:39.364Z,26.40
2023-07-09T02:04:10.390Z,26.40
2023-07-09T02:06:43.618Z,26.40
2023-07-09T02:09:14.164Z,26.40
2023-07-09T02:11:44.710Z,26.40
2023-07-09T02:14:15.248Z,26.30
2023-07-09T02:16:46.165Z,26.30
2023-07-09T02:19:16.687Z,26.30
2023-07-09T02:21:49.836Z,26.30
2023-07-09T02:24:20.347Z,26.30
2023-07-09T02:26:50.971Z,26.30
2023-07-09T02:29:21.789Z,26.30
2023-07-09T02:31:54.279Z,26.30
2023-07-09T02:34:26.883Z,26.30
2023-07-09T02:37:01.488Z,26.30
2023-07-09T02:39:31.976Z,26.20
2023-07-09T02:42:02.580Z,26.20
2023-07-09T02:44:33.045Z,26.20
2023-07-09T02:47:04.298Z,26.10
2023-07-09T02:49:34.912Z,26.10
2023-07-09T02:52:09.051Z,26.10
2023-07-09T02:54:39.848Z,26.00
2023-07-09T02:57:11.147Z,25.90
2023-07-09T02:59:41.840Z,25.90
2023-07-09T03:02:12.740Z,25.90
2023-07-09T03:04:43.628Z,25.80
2023-07-09T03:07:16.787Z,25.80
2023-07-09T03:09:47.399Z,25.90
2023-07-09T03:12:17.951Z,25.90
2023-07-09T03:14:52.300Z,25.80
2023-07-09T03:17:22.944Z,25.70
2023-07-09T03:19:53.497Z,25.70
2023-07-09T03:22:26.726Z,25.60
2023-07-09T03:24:57.298Z,25.60
2023-07-09T03:27:27.839Z,25.50
2023-07-09T03:29:58.292Z,25.60
2023-07-09T03:32:29.435Z,25.50
2023-07-09T03:34:59.976Z,25.50
2023-07-09T03:37:33.150Z,25.50
2023-07-09T03:40:05.687Z,25.50
2023-07-09T03:42:36.248Z,25.50
2023-07-09T03:45:06.997Z,25.50
2023-07-09T03:47:37.766Z,25.40
2023-07-09T03:50:10.886Z,25.40
2023-07-09T03:52:44.036Z,25.40
2023-07-09T03:55:14.593Z,25.40
2023-07-09T03:57:45.149Z,25.40
2023-07-09T04:00:17.069Z,25.30
2023-07-09T04:02:47.808Z,25.30
2023-07-09T04:05:18.991Z,25.30
2023-07-09T04:07:52.193Z,25.30
2023-07-09T04:10:23.369Z,25.30
2023-07-09T04:12:53.939Z,25.30
2023-07-09T04:15:24.457Z,25.20
2023-07-09T04:17:56.184Z,25.30
2023-07-09T04:20:26.754Z,25.30
2023-07-09T04:23:00.085Z,25.30
2023-07-09T04:25:30.634Z,25.20
2023-07-09T04:28:01.260Z,25.20
2023-07-09T04:30:31.792Z,25.20
2023-07-09T04:33:02.625Z,25.20
2023-07-09T04:35:33.141Z,25.20
2023-07-09T04:38:06.326Z,25.20
2023-07-09T04:40:37.258Z,25.20
2023-07-09T04:43:07.850Z,25.20
2023-07-09T04:45:38.740Z,25.20
2023-07-09T04:48:10.186Z,25.20
2023-07-09T04:50:41.790Z,25.20
2023-07-09T04:53:14.977Z,25.00
2023-07-09T04:55:45.483Z,25.10
2023-07-09T04:58:15.986Z,25.10
2023-07-09T05:00:46.924Z,25.10
2023-07-09T05:03:18.119Z,25.10
2023-07-09T05:05:49.638Z,25.10
2023-07-09T05:08:23.380Z,25.10
2023-07-09T05:10:55.820Z,25.10
2023-07-09T05:13:26.354Z,25.10
2023-07-09T05:15:57.398Z,25.00
2023-07-09T05:18:28.248Z,25.10
2023-07-09T05:20:59.931Z,25.00
2023-07-09T05:23:33.093Z,25.10
2023-07-09T05:26:05.602Z,25.10
2023-07-09T05:28:36.957Z,25.10
2023-07-09T05:31:09.059Z,25.10
2023-07-09T05:33:39.658Z,25.10
2023-07-09T05:36:15.099Z,25.10
2023-07-09T05:38:48.552Z,25.10
2023-07-09T05:41:20.075Z,25.10
2023-07-09T05:43:50.606Z,25.20
2023-07-09T05:46:24.071Z,25.20
2023-07-09T05:48:54.839Z,25.20
2023-07-09T05:51:27.689Z,25.20
2023-07-09T05:54:01.358Z,25.30
2023-07-09T05:56:31.875Z,25.30
2023-07-09T05:59:02.422Z,25.30
2023-07-09T06:01:33.565Z,25.40
2023-07-09T06:04:05.101Z,25.40
2023-07-09T06:06:35.660Z,25.40
2023-07-09T06:09:09.500Z,25.50
2023-07-09T06:11:40.220Z,25.50
2023-07-09T06:14:10.830Z,25.50
2023-07-09T06:16:41.513Z,25.50
2023-07-09T06:19:12.081Z,25.60
2023-07-09T06:21:43.525Z,25.60
2023-07-09T06:24:18.575Z,25.70
2023-07-09T06:26:49.166Z,25.70
2023-07-09T06:29:19.752Z,25.70
2023-07-09T06:31:50.384Z,25.70
2023-07-09T06:34:20.988Z,25.80
2023-07-09T06:36:51.573Z,25.80
2023-07-09T06:39:25.295Z,25.80
2023-07-09T06:41:56.094Z,25.90
2023-07-09T06:44:55.348Z,25.90
2023-07-09T06:47:25.932Z,25.90
2023-07-09T06:49:56.545Z,26.00
2023-07-09T06:52:27.053Z,26.00
2023-07-09T06:55:00.281Z,26.10
2023-07-09T06:57:30.812Z,26.00
2023-07-09T07:00:04.140Z,26.10
2023-07-09T07:02:35.853Z,26.10
2023-07-09T07:05:06.805Z,26.20
2023-07-09T07:07:37.296Z,26.20
2023-07-09T07:10:11.622Z,26.30
2023-07-09T07:12:47.711Z,26.30
2023-07-09T07:15:20.474Z,26.30
2023-07-09T07:17:51.203Z,26.30
2023-07-09T07:20:22.645Z,26.40
2023-07-09T07:22:53.261Z,26.50
2023-07-09T07:25:26.693Z,26.50
2023-07-09T07:27:57.601Z,26.50
2023-07-09T07:30:28.331Z,26.60
2023-07-09T07:32:58.929Z,26.60
2023-07-09T07:35:29.783Z,26.60
2023-07-09T07:38:00.237Z,26.70
2023-07-09T07:40:33.648Z,26.70
2023-07-09T07:43:04.155Z,26.80
2023-07-09T07:45:34.696Z,26.80
2023-07-09T07:48:05.230Z,26.90
2023-07-09T07:50:35.882Z,26.90
2023-07-09T07:53:06.433Z,26.90
2023-07-09T07:55:40.581Z,27.00
2023-07-09T07:58:13.898Z,27.00
2023-07-09T08:00:45.232Z,27.10
2023-07-09T08:03:15.808Z,27.10
2023-07-09T08:05:46.400Z,27.10
2023-07-09T08:08:16.911Z,27.10
2023-07-09T08:10:50.051Z,27.20
2023-07-09T08:13:20.537Z,27.20
2023-07-09T08:15:51.220Z,27.20
2023-07-09T08:18:21.985Z,27.30
2023-07-09T08:20:52.715Z,27.30
2023-07-09T08:23:23.262Z,27.40
2023-07-09T08:26:01.257Z,27.40
2023-07-09T08:28:31.873Z,27.40
2023-07-09T08:31:02.845Z,27.40
2023-07-09T08:33:35.139Z,27.50
2023-07-09T08:36:05.825Z,27.40
2023-07-09T08:38:36.333Z,27.50
2023-07-09T08:41:24.328Z,27.60
2023-07-09T08:44:07.392Z,27.70
2023-07-09T08:46:50.486Z,27.60
2023-07-09T08:49:25.583Z,27.60
2023-07-09T08:51:58.602Z,27.80
2023-07-09T08:54:32.969Z,27.80
2023-07-09T08:57:15.271Z,27.80
2023-07-09T08:59:46.491Z,27.90
2023-07-09T09:02:33.635Z,27.90
2023-07-09T09:05:05.356Z,27.80
2023-07-09T09:07:43.830Z,27.90
2023-07-09T09:10:19.905Z,27.90
2023-07-09T09:13:08.628Z,28.00
2023-07-09T09:15:39.265Z,28.00
2023-07-09T09:18:24.316Z,28.00
2023-07-09T09:21:00.784Z,28.00
2023-07-09T09:23:39.672Z,28.20
2023-07-09T09:26:19.658Z,28.20
2023-07-09T09:28:52.930Z,28.20
2023-07-09T09:31:23.840Z,28.30
2023-07-09T09:33:54.701Z,28.30
2023-07-09T09:36:27.326Z,28.40
2023-07-09T09:38:58.099Z,28.50
2023-07-09T09:41:34.147Z,28.50
2023-07-09T09:44:07.780Z,28.60
2023-07-09T09:46:38.418Z,28.60
2023-07-09T09:49:14.970Z,28.60
2023-07-09T09:51:49.086Z,28.60
2023-07-09T09:54:23.994Z,28.80
2023-07-09T09:56:56.936Z,28.90
2023-07-09T09:59:35.256Z,28.90
2023-07-09T10:02:19.826Z,28.80
2023-07-09T10:04:51.581Z,28.80
2023-07-09T10:07:27.899Z,29.00
2023-07-09T10:10:00.033Z,29.10
2023-07-09T10:12:43.496Z,29.10
2023-07-09T10:15:27.575Z,29.20
2023-07-09T10:18:04.302Z,29.30
2023-07-09T10:20:40.635Z,29.20
2023-07-09T10:23:24.836Z,29.20
2023-07-09T10:26:02.088Z,29.30
2023-07-09T10:28:48.008Z,29.40
2023-07-09T10:31:26.650Z,29.30
2023-07-09T10:34:08.556Z,29.20
2023-07-09T10:36:52.335Z,29.40
2023-07-09T10:39:27.272Z,29.30
2023-07-09T10:42:01.707Z,29.20
2023-07-09T10:44:37.480Z,29.20
2023-07-09T10:47:16.834Z,29.10
2023-07-09T10:49:47.920Z,29.10
2023-07-09T10:52:26.661Z,28.90
2023-07-09T10:55:03.245Z,28.90
2023-07-09T10:57:38.290Z,28.90
2023-07-09T11:00:12.171Z,29.00
2023-07-09T11:02:47.180Z,28.90
2023-07-09T11:05:17.967Z,28.90
2023-07-09T11:07:54.751Z,28.90
2023-07-09T11:10:29.459Z,28.90
2023-07-09T11:13:08.095Z,28.80
2023-07-09T11:15:41.205Z,28.80
2023-07-09T11:18:30.618Z,28.80
2023-07-09T11:21:04.793Z,28.50
2023-07-09T11:23:43.964Z,28.50
2023-07-09T11:26:17.156Z,28.50
2023-07-09T11:28:57.583Z,28.40
2023-07-09T11:31:38.188Z,28.40
2023-07-09T11:34:21.291Z,28.40
2023-07-09T11:36:54.644Z,28.30
2023-07-09T11:39:31.150Z,28.30
2023-07-09T11:42:02.159Z,28.20
2023-07-09T11:44:34.650Z,28.00
2023-07-09T11:47:21.715Z,27.90
2023-07-09T11:49:59.658Z,27.70
2023-07-09T11:52:35.314Z,27.70
2023-07-09T11:55:30.433Z,27.70
2023-07-09T11:58:03.869Z,27.60
2023-07-09T12:00:41.842Z,27.60
2023-07-09T12:03:19.579Z,27.50
2023-07-09T12:05:56.965Z,27.40
2023-07-09T12:08:33.087Z,27.30
2023-07-09T12:11:04.416Z,27.30
2023-07-09T12:13:41.726Z,27.10
2023-07-09T12:16:25.898Z,27.20
2023-07-09T12:18:56.665Z,27.20
2023-07-09T12:21:30.873Z,27.20
2023-07-09T12:24:01.470Z,27.30
2023-07-09T12:26:35.664Z,27.20
2023-07-09T12:29:06.180Z,27.20
2023-07-09T12:31:36.901Z,27.20
2023-07-09T12:34:07.463Z,27.10
2023-07-09T12:36:42.734Z,27.10
2023-07-09T12:39:17.137Z,27.10
2023-07-09T12:41:50.053Z,27.00
2023-07-09T12:44:23.032Z,27.00
2023-07-09T12:46:55.297Z,26.90
2023-07-09T12:49:27.985Z,26.90
2023-07-09T12:52:04.575Z,26.70
2023-07-09T12:54:35.901Z,26.70
2023-07-09T12:57:18.719Z,26.60
2023-07-09T12:59:51.081Z,26.50
2023-07-09T13:02:23.908Z,26.50
2023-07-09T13:05:02.608Z,26.40
2023-07-09T13:07:40.595Z,26.40
2023-07-09T13:10:20.093Z,26.30
2023-07-09T13:12:53.339Z,26.30
2023-07-09T13:15:28.588Z,26.30
2023-07-09T13:18:05.552Z,26.10
2023-07-09T13:20:38.356Z,26.10
2023-07-09T13:23:14.642Z,26.10
2023-07-09T13:25:48.267Z,25.90
2023-07-09T13:28:22.374Z,26.10
2023-07-09T13:30:55.391Z,26.10
2023-07-09T13:33:26.268Z,26.10
2023-07-09T13:35:57.199Z,26.20
2023-07-09T13:38:30.474Z,26.10
2023-07-09T13:41:04.501Z,26.10
2023-07-09T13:43:37.233Z,26.10
2023-07-09T13:46:10.820Z,26.20
2023-07-09T13:48:43.754Z,26.10
2023-07-09T13:51:23.538Z,26.10
2023-07-09T13:54:00.648Z,26.20
2023-07-09T13:56:31.158Z,26.10
2023-07-09T13:59:01.708Z,26.10
2023-07-09T14:01:33.060Z,26.10
2023-07-09T14:04:03.796Z,26.00
2023-07-09T14:06:37.253Z,26.10
2023-07-09T14:09:10.791Z,26.20
2023-07-09T14:11:46.550Z,26.30
2023-07-09T14:14:22.799Z,26.10
2023-07-09T14:16:54.533Z,26.30
2023-07-09T14:19:26.911Z,26.30
2023-07-09T14:21:58.416Z,26.30
2023-07-09T14:24:32.911Z,26.40
2023-07-09T14:27:03.425Z,26.30
2023-07-09T14:29:34.266Z,26.30
2023-07-09T14:32:04.820Z,26.50
2023-07-09T14:34:41.375Z,26.50
2023-07-09T14:37:12.763Z,26.60
2023-07-09T14:39:46.058Z,26.90
2023-07-09T14:42:17.354Z,27.10
2023-07-09T14:44:48.026Z,27.10
2023-07-09T14:47:21.108Z,27.20
2023-07-09T14:49:52.280Z,27.30
2023-07-09T14:52:24.850Z,27.50
2023-07-09T14:54:58.069Z,27.50
2023-07-09T14:57:31.365Z,27.50
2023-07-09T15:00:02.044Z,27.60
2023-07-09T15:02:38.220Z,27.60
2023-07-09T15:05:15.932Z,27.70
2023-07-09T15:07:46.775Z,27.80
2023-07-09T15:10:22.840Z,27.90
2023-07-09T15:12:53.979Z,27.80
2023-07-09T15:15:27.961Z,27.70
2023-07-09T15:17:59.574Z,27.70
2023-07-09T15:20:33.869Z,27.60
2023-07-09T15:23:04.593Z,27.80
2023-07-09T15:25:37.818Z,27.70
2023-07-09T15:28:08.554Z,27.60
2023-07-09T15:30:39.888Z,27.60
2023-07-09T15:33:13.066Z,27.80
2023-07-09T15:35:43.699Z,27.90
2023-07-09T15:38:29.367Z,28.10
2023-07-09T15:41:03.075Z,27.90
2023-07-09T15:43:33.965Z,28.10
2023-07-09T15:46:04.932Z,28.00
2023-07-09T15:48:37.635Z,28.20
2023-07-09T15:51:09.299Z,28.30
2023-07-09T15:53:40.328Z,28.10
2023-07-09T15:56:31.413Z,28.20
2023-07-09T15:59:03.389Z,28.40
2023-07-09T16:01:34.092Z,28.00
2023-07-09T16:04:10.369Z,28.10
2023-07-09T16:06:42.610Z,28.00
2023-07-09T16:09:13.224Z,27.90
2023-07-09T16:11:50.131Z,27.90
2023-07-09T16:14:25.202Z,27.90
2023-07-09T16:16:57.096Z,27.80
2023-07-09T16:19:29.318Z,27.60
2023-07-09T16:22:02.428Z,27.70
2023-07-09T16:24:35.346Z,27.80
2023-07-09T16:27:12.225Z,27.90
2023-07-09T16:29:42.888Z,27.80
2023-07-09T16:32:14.376Z,27.60
2023-07-09T16:34:45.390Z,27.40
2023-07-09T16:37:24.492Z,27.40
2023-07-09T16:39:55.884Z,27.50
2023-07-09T16:42:29.167Z,27.70
2023-07-09T16:44:59.821Z,27.80
2023-07-09T16:47:31.233Z,27.90
2023-07-09T16:50:01.861Z,28.00
2023-07-09T16:52:33.254Z,28.00
2023-07-09T16:55:04.283Z,27.80
2023-07-09T16:57:38.222Z,27.80
2023-07-09T17:00:27.957Z,27.80
2023-07-09T17:03:02.497Z,27.50
2023-07-09T17:05:34.776Z,27.40
2023-07-09T17:08:12.969Z,27.10
2023-07-09T17:10:50.547Z,27.20
2023-07-09T17:13:26.976Z,27.20
2023-07-09T17:15:57.795Z,27.10
2023-07-09T17:18:30.341Z,26.60
2023-07-09T17:21:04.257Z,26.60
2023-07-09T17:23:36.526Z,26.40
2023-07-09T17:26:07.620Z,26.30
2023-07-09T17:28:41.101Z,26.20
2023-07-09T17:31:11.628Z,26.00
2023-07-09T17:33:42.765Z,26.00
2023-07-09T17:36:19.165Z,26.00
2023-07-09T17:38:51.583Z,26.20
2023-07-09T17:41:25.789Z,26.20
2023-07-09T17:43:58.897Z,26.10
2023-07-09T17:46:30.220Z,26.10
2023-07-09T17:49:01.314Z,26.10
2023-07-09T17:51:32.745Z,25.80
2023-07-09T17:54:06.373Z,25.60
2023-07-09T17:56:37.416Z,25.50
2023-07-09T17:59:16.721Z,25.50
2023-07-09T18:01:49.333Z,25.40
2023-07-09T18:06:55.333Z,25.20
2023-07-09T18:09:26.175Z,25.40
2023-07-09T18:11:59.074Z,25.20
2023-07-09T18:14:38.727Z,25.20
2023-07-09T18:17:17.645Z,25.10
2023-07-09T18:19:49.643Z,25.10
2023-07-09T18:22:24.025Z,25.00
2023-07-09T18:24:55.114Z,25.00
2023-07-09T18:27:29.485Z,25.00
2023-07-09T18:30:03.077Z,24.90
2023-07-09T18:32:35.350Z,24.90
2023-07-09T18:35:22.279Z,24.80
2023-07-09T18:37:57.902Z,24.70
2023-07-09T18:40:29.571Z,24.70
2023-07-09T18:43:01.117Z,24.70
2023-07-09T18:45:34.999Z,24.60
2023-07-09T18:48:09.294Z,24.60
2023-07-09T18:50:40.187Z,24.60
2023-07-09T18:53:16.431Z,24.70
2023-07-09T18:55:47.984Z,24.60
2023-07-09T18:58:23.670Z,24.50
2023-07-09T19:00:57.820Z,24.50
2023-07-09T19:03:32.282Z,24.60
2023-07-09T19:06:03.852Z,24.60
2023-07-09T19:08:36.162Z,24.60
2023-07-09T19:11:07.863Z,24.40
2023-07-09T19:13:38.596Z,24.20
2023-07-09T19:16:29.049Z,24.20
2023-07-09T19:19:01.914Z,24.20
2023-07-09T19:21:35.325Z,24.20
2023-07-09T19:24:06.477Z,24.20
2023-07-09T19:26:37.866Z,24.20
2023-07-09T19:29:09.273Z,24.10
2023-07-09T19:31:44.506Z,24.10
2023-07-09T19:34:22.812Z,24.10
2023-07-09T19:36:55.998Z,24.10
2023-07-09T19:39:32.525Z,24.10
2023-07-09T19:42:12.169Z,24.00
2023-07-09T19:44:43.069Z,23.90
2023-07-09T19:47:22.880Z,23.80
2023-07-09T19:49:56.693Z,23.90
2023-07-09T19:52:27.955Z,23.90
2023-07-09T19:54:58.598Z,23.90
2023-07-09T19:57:29.551Z,23.90
2023-07-09T20:00:00.558Z,23.90
2023-07-09T20:02:34.399Z,24.00
2023-07-09T20:05:06.055Z,24.00
2023-07-09T20:07:37.068Z,23.90
2023-07-09T20:10:08.926Z,23.90
2023-07-09T20:12:40.292Z,24.00
2023-07-09T20:15:23.771Z,24.00
2023-07-09T20:18:00.344Z,24.00
2023-07-09T20:20:32.234Z,23.90
2023-07-09T20:23:03.298Z,23.90
2023-07-09T20:25:34.378Z,23.90
2023-07-09T20:28:06.113Z,23.90
2023-07-09T20:30:37.025Z,23.90
2023-07-09T20:33:14.261Z,23.90
2023-07-09T20:35:46.706Z,23.90
2023-07-09T20:38:19.404Z,23.90
2023-07-09T20:40:51.343Z,24.00
2023-07-09T20:43:25.777Z,23.90
2023-07-09T20:45:57.061Z,23.90
2023-07-09T20:48:31.860Z,23.90
2023-07-09T20:51:02.943Z,23.80
2023-07-09T20:53:33.838Z,23.90
2023-07-09T20:56:04.946Z,23.90
2023-07-09T20:58:36.286Z,23.80
2023-07-09T21:01:07.336Z,23.80
2023-07-09T21:03:40.785Z,23.80
2023-07-09T21:06:19.416Z,23.80
2023-07-09T21:08:50.449Z,23.80
2023-07-09T21:11:21.336Z,23.80
2023-07-09T21:13:53.021Z,23.60
2023-07-09T21:16:24.810Z,23.70
2023-07-09T21:18:58.725Z,23.70
2023-07-09T21:21:29.948Z,23.70
2023-07-09T21:24:00.846Z,23.70
2023-07-09T21:26:31.979Z,23.70
2023-07-09T21:29:03.284Z,23.70
2023-07-09T21:31:34.052Z,23.60
2023-07-09T21:34:09.368Z,23.50
2023-07-09T21:36:40.209Z,23.60
2023-07-09T21:39:18.150Z,23.60
2023-07-09T21:41:50.174Z,23.60
2023-07-09T21:44:21.242Z,23.60
2023-07-09T21:46:53.999Z,23.60
2023-07-09T21:49:31.451Z,23.50
2023-07-09T21:52:02.646Z,23.50
2023-07-09T21:55:02.798Z,23.50
2023-07-09T21:57:27.098Z,23.50
2023-07-09T21:59:59.122Z,23.50
2023-07-09T22:02:34.472Z,23.50
2023-07-09T22:05:16.822Z,23.50
2023-07-09T22:07:49.334Z,23.50
2023-07-09T22:10:21.986Z,23.50
2023-07-09T22:12:59.204Z,23.30
2023-07-09T22:15:31.754Z,23.30
2023-07-09T22:18:02.876Z,23.30
2023-07-09T22:20:36.643Z,23.30
2023-07-09T22:23:10.557Z,23.40
2023-07-09T22:25:41.724Z,23.40
2023-07-09T22:28:13.698Z,23.40
2023-07-09T22:30:44.764Z,23.30
2023-07-09T22:33:16.114Z,23.20
2023-07-09T22:35:49.956Z,23.30
2023-07-09T22:38:24.130Z,23.30
2023-07-09T22:40:55.648Z,23.30
2023-07-09T22:43:26.804Z,23.20
2023-07-09T22:45:59.460Z,23.20
2023-07-09T22:48:31.700Z,23.00
2023-07-09T22:51:04.998Z,23.10
2023-07-09T22:53:35.677Z,23.10
2023-07-09T22:56:11.654Z,23.10
2023-07-09T22:58:42.729Z,23.20
2023-07-09T23:01:21.877Z,23.20
2023-07-09T23:03:53.561Z,23.20
2023-07-09T23:06:28.801Z,23.10
2023-07-09T23:09:02.860Z,23.10
2023-07-09T23:11:37.728Z,23.20
2023-07-09T23:14:14.723Z,23.20
2023-07-09T23:16:46.384Z,23.10
2023-07-09T23:19:24.504Z,23.10
2023-07-09T23:21:58.436Z,23.00
2023-07-09T23:24:30.141Z,22.80
2023-07-09T23:27:01.212Z,22.90
2023-07-09T23:29:33.851Z,23.00
2023-07-09T23:32:05.336Z,22.90
2023-07-09T23:34:36.252Z,22.90
2023-07-09T23:37:10.347Z,22.90
2023-07-09T23:39:41.069Z,22.90
2023-07-09T23:42:14.760Z,22.90
2023-07-09T23:44:53.520Z,22.70
2023-07-09T23:47:24.581Z,22.80
2023-07-09T23:49:55.701Z,22.80
2023-07-09T23:52:29.500Z,22.80
2023-07-09T23:55:02.800Z,22.80
2023-07-09T23:57:33.839Z,22.70
